Time;durP1;ratioP1;P1;durP2;ratioP2;P2;SDS_P1;SDS_P2;PMS_P1;PMS_P2;Temp;Humidity;BMP_temperature;BMP_pressure;BME280_temperature;BME280_humidity;BME280_pressure;Samples;Min_cycle;Max_cycle;Signal;HPM_P1;HPM_P2
2022/06/10 00:00:30;;;;;;;15.35;4.03;;;16.40;99.90;;;;;;5053446;28;20032;-73
2022/06/10 00:02:56;;;;;;;14.60;3.63;;;16.40;99.90;;;;;;5052459;28;20021;-73
2022/06/10 00:05:24;;;;;;;8.05;3.22;;;16.30;99.90;;;;;;5051610;28;20095;-73
2022/06/10 00:07:51;;;;;;;5.80;2.80;;;16.30;99.90;;;;;;5052190;28;20466;-73
2022/06/10 00:10:19;;;;;;;6.85;3.28;;;16.30;99.90;;;;;;5052231;28;20477;-73
2022/06/10 00:12:46;;;;;;;9.43;3.28;;;16.30;99.90;;;;;;5039790;28;20036;-73
2022/06/10 00:15:13;;;;;;;13.07;3.88;;;16.20;99.90;;;;;;5053246;28;20064;-73
2022/06/10 00:17:39;;;;;;;8.10;3.42;;;16.20;99.90;;;;;;5049767;28;20059;-73
2022/06/10 00:20:06;;;;;;;12.40;3.95;;;16.20;99.90;;;;;;5053044;28;20025;-71
2022/06/10 00:22:31;;;;;;;12.30;4.30;;;16.20;99.90;;;;;;5061572;28;20496;-72
2022/06/10 00:24:57;;;;;;;6.05;3.38;;;16.20;99.90;;;;;;5073363;28;20029;-73
2022/06/10 00:27:23;;;;;;;11.38;3.90;;;16.10;99.90;;;;;;5073118;28;20020;-73
2022/06/10 00:29:48;;;;;;;8.95;3.25;;;16.10;99.90;;;;;;5073032;28;20095;-73
2022/06/10 00:32:15;;;;;;;13.82;3.78;;;16.10;99.90;;;;;;5061613;28;20032;-73
2022/06/10 00:34:41;;;;;;;11.48;4.90;;;16.10;99.90;;;;;;5052681;28;20027;-73
2022/06/10 00:37:07;;;;;;;7.40;3.22;;;16.00;99.90;;;;;;5052517;28;20025;-71
2022/06/10 00:39:34;;;;;;;8.18;3.40;;;16.00;99.90;;;;;;5052399;28;20543;-73
2022/06/10 00:42:00;;;;;;;7.07;3.20;;;16.00;99.90;;;;;;5049475;28;20071;-73
2022/06/10 00:44:32;;;;;;;8.45;3.70;;;16.00;99.90;;;;;;5051533;28;20029;-72
2022/06/10 00:46:58;;;;;;;7.47;3.58;;;16.10;99.90;;;;;;5052839;28;20496;-73
2022/06/10 00:49:24;;;;;;;13.63;4.45;;;16.10;99.90;;;;;;5052920;28;20025;-73
2022/06/10 00:51:54;;;;;;;10.10;4.18;;;16.00;99.90;;;;;;5052358;28;20037;-73
2022/06/10 00:54:35;;;;;;;10.63;3.75;;;16.00;99.90;;;;;;5052985;28;20049;-73
2022/06/10 00:57:07;;;;;;;6.40;3.05;;;16.00;99.90;;;;;;5052437;28;20048;-72
2022/06/10 00:59:41;;;;;;;9.73;3.83;;;16.10;99.90;;;;;;5052730;28;20033;-73
2022/06/10 01:02:17;;;;;;;11.30;4.70;;;16.10;99.90;;;;;;5052517;28;20033;-72
2022/06/10 01:04:43;;;;;;;14.48;4.90;;;16.00;99.90;;;;;;5052569;28;20027;-73
2022/06/10 01:07:11;;;;;;;9.15;4.07;;;16.00;99.90;;;;;;5046367;28;20108;-73
2022/06/10 01:09:39;;;;;;;13.52;4.50;;;16.10;99.90;;;;;;5067888;28;20397;-72
2022/06/10 01:12:10;;;;;;;12.70;5.03;;;16.10;99.90;;;;;;5071717;28;20437;-73
2022/06/10 01:14:51;;;;;;;15.63;4.45;;;16.10;99.90;;;;;;5064238;28;20037;-73
2022/06/10 01:17:45;;;;;;;11.90;4.70;;;16.10;99.90;;;;;;5051499;28;20025;-73
2022/06/10 01:20:38;;;;;;;13.38;4.93;;;16.10;99.90;;;;;;5051536;28;20389;-71
2022/06/10 01:23:32;;;;;;;10.82;3.88;;;16.10;99.90;;;;;;5051510;28;20017;-73
2022/06/10 01:27:47;;;;;;;12.77;5.38;;;16.10;99.90;;;;;;5052384;28;20017;-73
2022/06/10 01:29:51;;;;;;;13.68;4.35;;;16.10;99.90;;;;;;5055377;28;20095;-71
2022/06/10 01:32:33;;;;;;;11.75;3.70;;;16.10;99.90;;;;;;5056155;28;20055;-73
2022/06/10 01:35:33;;;;;;;8.32;4.03;;;16.20;99.90;;;;;;5055341;28;20017;-72
2022/06/10 01:38:09;;;;;;;18.25;4.50;;;16.20;99.90;;;;;;5045513;28;20108;-72
2022/06/10 01:40:53;;;;;;;10.75;3.90;;;16.20;99.90;;;;;;5054767;28;20029;-73
2022/06/10 01:43:33;;;;;;;11.38;4.80;;;16.20;99.90;;;;;;5053198;28;20025;-73
2022/06/10 01:46:11;;;;;;;7.85;3.70;;;16.20;99.90;;;;;;5056294;28;20021;-73
2022/06/10 01:49:10;;;;;;;14.88;4.57;;;16.20;99.90;;;;;;5055661;28;20021;-73
2022/06/10 01:51:51;;;;;;;8.75;4.20;;;16.20;99.90;;;;;;5055832;28;20572;-74
2022/06/10 01:54:22;;;;;;;11.48;3.83;;;16.20;99.90;;;;;;5055758;28;20072;-72
2022/06/10 01:56:51;;;;;;;8.88;4.00;;;16.20;99.90;;;;;;5056678;28;20032;-73
2022/06/10 01:59:43;;;;;;;11.30;4.30;;;16.20;99.90;;;;;;5059537;28;20033;-72
2022/06/10 02:02:17;;;;;;;13.98;4.32;;;16.20;99.90;;;;;;5055807;28;20021;-73
2022/06/10 02:04:48;;;;;;;9.52;4.05;;;16.20;99.90;;;;;;5055801;28;20029;-73
2022/06/10 02:07:20;;;;;;;10.70;3.80;;;16.20;99.90;;;;;;5052750;28;20784;-73
2022/06/10 02:09:54;;;;;;;14.18;4.53;;;16.20;99.90;;;;;;5035714;28;20049;-72
2022/06/10 02:12:27;;;;;;;10.52;4.00;;;16.30;99.90;;;;;;5036907;28;20108;-73
2022/06/10 02:14:55;;;;;;;;;;;16.30;99.90;;;;;;5043283;28;20037;-73
2022/06/10 02:17:22;;;;;;;12.10;4.05;;;16.30;99.90;;;;;;5060867;28;19916;-72
2022/06/10 02:19:56;;;;;;;11.80;3.58;;;16.30;99.90;;;;;;5075710;28;20047;-73
2022/06/10 02:22:35;;;;;;;14.43;4.05;;;16.30;99.90;;;;;;5060214;28;20347;-73
2022/06/10 02:25:25;;;;;;;9.27;3.90;;;16.40;99.90;;;;;;5035400;28;20071;-73
2022/06/10 02:27:57;;;;;;;14.57;4.10;;;16.40;99.90;;;;;;5034879;28;20048;-73
2022/06/10 02:30:28;;;;;;;11.55;3.80;;;16.30;99.90;;;;;;5035684;28;20491;-73
2022/06/10 02:32:57;;;;;;;12.50;3.60;;;16.30;99.90;;;;;;5034293;28;20368;-73
2022/06/10 02:35:39;;;;;;;9.52;4.10;;;16.40;99.90;;;;;;5062005;28;20052;-73
2022/06/10 02:38:42;;;;;;;12.35;4.45;;;16.40;99.90;;;;;;5057362;28;20470;-73
2022/06/10 02:41:16;;;;;;;13.70;3.97;;;16.40;99.90;;;;;;5049902;28;20592;-73
2022/06/10 02:44:25;;;;;;;10.70;3.83;;;16.40;99.90;;;;;;5045843;28;20040;-73
2022/06/10 02:47:02;;;;;;;10.70;3.85;;;16.40;99.90;;;;;;5055509;28;20048;-71
2022/06/10 02:49:28;;;;;;;16.23;4.22;;;16.50;99.90;;;;;;5054246;28;20478;-72
2022/06/10 02:51:54;;;;;;;10.00;3.80;;;16.40;99.90;;;;;;5055175;28;20017;-74
2022/06/10 02:54:36;;;;;;;9.27;3.67;;;16.50;99.90;;;;;;5054345;28;20489;-72
2022/06/10 02:57:27;;;;;;;8.05;3.30;;;16.40;99.90;;;;;;5054907;28;20021;-72
2022/06/10 03:03:00;;;;;;;9.70;4.00;;;16.50;99.90;;;;;;5034876;28;20179;-73
2022/06/10 03:05:40;;;;;;;9.35;3.58;;;16.50;99.90;;;;;;5039011;28;20029;-73
2022/06/10 03:08:15;;;;;;;13.73;4.20;;;16.50;99.90;;;;;;5056208;28;20040;-73
2022/06/10 03:11:08;;;;;;;11.23;3.85;;;16.50;99.90;;;;;;5034695;28;20045;-73
2022/06/10 03:13:33;;;;;;;;;;;16.50;99.90;;;;;;5034960;28;20485;-73
2022/06/10 03:16:26;;;;;;;8.02;3.38;;;16.50;99.90;;;;;;5034733;28;19960;-72
2022/06/10 03:19:01;;;;;;;13.40;3.85;;;16.40;99.90;;;;;;5033462;28;20378;-73
2022/06/10 03:21:39;;;;;;;10.48;3.42;;;16.50;99.90;;;;;;5049813;28;20100;-73
2022/06/10 03:24:26;;;;;;;8.85;3.30;;;16.60;99.90;;;;;;5053788;28;20024;-74
2022/06/10 03:26:57;;;;;;;10.45;3.33;;;16.50;99.90;;;;;;5053218;28;20424;-74
2022/06/10 03:29:50;;;;;;;13.07;3.60;;;16.60;99.90;;;;;;5052952;28;20033;-73
2022/06/10 03:32:29;;;;;;;9.88;3.20;;;16.60;99.90;;;;;;5034536;28;20025;-73
2022/06/10 03:35:18;;;;;;;13.63;4.10;;;16.60;99.90;;;;;;5033265;28;20034;-73
2022/06/10 03:37:44;;;;;;;10.73;3.58;;;16.60;99.90;;;;;;5035005;28;20028;-73
2022/06/10 03:40:17;;;;;;;11.25;3.95;;;16.60;99.90;;;;;;5032973;28;20038;-73
2022/06/10 03:42:50;;;;;;;9.95;3.78;;;16.60;99.90;;;;;;5034139;28;20053;-73
2022/06/10 03:45:19;;;;;;;11.63;3.45;;;16.60;99.90;;;;;;5034112;28;20029;-73
2022/06/10 03:47:45;;;;;;;10.60;3.20;;;16.70;99.90;;;;;;5046431;28;20017;-73
2022/06/10 03:50:14;;;;;;;8.05;3.33;;;16.70;99.90;;;;;;5052886;28;20045;-74
2022/06/10 03:52:41;;;;;;;8.02;3.30;;;16.70;99.90;;;;;;5053731;28;20078;-72
2022/06/10 03:55:09;;;;;;;18.95;3.72;;;16.70;99.90;;;;;;5056975;28;20035;-73
2022/06/10 03:57:36;;;;;;;11.77;3.33;;;16.70;99.90;;;;;;5071006;28;20024;-73
2022/06/10 04:00:04;;;;;;;9.15;2.85;;;16.70;99.90;;;;;;5053722;28;20036;-73
2022/06/10 04:02:30;;;;;;;11.50;3.38;;;16.70;99.90;;;;;;5053601;28;20029;-73
2022/06/10 04:04:55;;;;;;;12.65;3.85;;;16.70;99.90;;;;;;5051666;28;20023;-73
2022/06/10 04:07:21;;;;;;;12.73;3.42;;;16.70;99.90;;;;;;5053385;28;20028;-73
2022/06/10 04:09:48;;;;;;;9.60;3.58;;;16.80;99.90;;;;;;5053125;28;20053;-73
2022/06/10 04:12:15;;;;;;;9.98;3.25;;;16.80;99.90;;;;;;5052555;28;20033;-72
2022/06/10 04:14:41;;;;;;;14.77;4.15;;;16.80;99.90;;;;;;5049431;28;20061;-71
2022/06/10 04:17:09;;;;;;;12.43;3.75;;;16.80;99.90;;;;;;5052446;28;20061;-72
2022/06/10 04:19:35;;;;;;;7.55;2.80;;;16.80;99.90;;;;;;5055013;28;20039;-73
2022/06/10 04:22:01;;;;;;;10.13;3.17;;;16.80;99.90;;;;;;5055162;28;20462;-73
2022/06/10 04:24:27;;;;;;;8.45;3.30;;;16.80;99.90;;;;;;5053154;28;20033;-73
2022/06/10 04:26:53;;;;;;;13.77;3.30;;;16.80;99.90;;;;;;5052975;28;20028;-73
2022/06/10 04:29:19;;;;;;;15.90;3.22;;;16.80;99.90;;;;;;5053118;28;20032;-73
2022/06/10 04:31:45;;;;;;;7.53;2.97;;;16.80;99.90;;;;;;5053126;28;20025;-72
2022/06/10 04:34:11;;;;;;;10.75;2.53;;;16.80;99.90;;;;;;5053092;28;20068;-72
2022/06/10 04:36:38;;;;;;;8.30;2.85;;;16.90;99.90;;;;;;5052564;28;20021;-72
2022/06/10 04:39:04;;;;;;;10.27;2.72;;;16.90;99.90;;;;;;5050262;28;20100;-73
2022/06/10 04:41:30;;;;;;;12.93;3.58;;;16.90;99.90;;;;;;5033466;28;20018;-72
2022/06/10 04:43:56;;;;;;;11.85;3.75;;;16.90;99.90;;;;;;5039091;28;20037;-72
2022/06/10 04:46:48;;;;;;;10.88;3.10;;;16.90;99.90;;;;;;5050784;28;20037;-73
2022/06/10 04:49:14;;;;;;;10.55;2.90;;;16.90;99.90;;;;;;5041590;28;20040;-73
2022/06/10 04:51:40;;;;;;;10.35;3.40;;;16.90;99.90;;;;;;5047745;28;20052;-73
2022/06/10 04:54:06;;;;;;;7.50;2.95;;;17.00;99.90;;;;;;5055713;28;20022;-74
2022/06/10 04:56:33;;;;;;;16.02;3.78;;;17.00;99.90;;;;;;5055218;28;20108;-72
2022/06/10 04:58:58;;;;;;;12.10;3.28;;;17.00;99.90;;;;;;5050193;28;20057;-72
2022/06/10 05:01:24;;;;;;;10.25;3.28;;;17.10;99.90;;;;;;5059474;28;20504;-71
2022/06/10 05:03:50;;;;;;;9.73;3.15;;;17.00;99.90;;;;;;5047612;28;20025;-72
2022/06/10 05:06:15;;;;;;;11.93;3.28;;;17.10;99.90;;;;;;5063844;28;20485;-72
2022/06/10 05:08:41;;;;;;;9.98;2.63;;;17.10;99.90;;;;;;5052875;28;20482;-71
2022/06/10 05:11:07;;;;;;;7.68;2.90;;;17.00;99.90;;;;;;5056024;28;20115;-72
2022/06/10 05:13:35;;;;;;;7.15;2.60;;;17.00;99.90;;;;;;5052316;28;20029;-72
2022/06/10 05:16:01;;;;;;;9.60;2.42;;;17.00;99.90;;;;;;5056923;28;20481;-73
2022/06/10 05:18:26;;;;;;;12.05;3.15;;;17.00;99.90;;;;;;5056727;28;20028;-73
2022/06/10 05:20:53;;;;;;;8.65;2.22;;;16.90;99.90;;;;;;5049143;28;20039;-72
2022/06/10 05:23:22;;;;;;;12.90;2.13;;;17.00;99.90;;;;;;5063370;28;20027;-73
2022/06/10 05:25:48;;;;;;;8.32;2.30;;;17.00;99.90;;;;;;5042102;28;20100;-72
2022/06/10 05:28:14;;;;;;;9.88;2.10;;;17.10;99.90;;;;;;5051789;28;20032;-72
2022/06/10 05:30:41;;;;;;;7.38;2.40;;;17.10;99.90;;;;;;5049116;28;20041;-72
2022/06/10 05:33:08;;;;;;;10.77;2.40;;;17.10;99.90;;;;;;5055130;28;20063;-72
2022/06/10 05:35:34;;;;;;;12.07;3.25;;;17.10;99.90;;;;;;5055853;28;20028;-72
2022/06/10 05:38:01;;;;;;;10.48;2.92;;;17.10;99.90;;;;;;5050162;28;20022;-72
2022/06/10 05:40:28;;;;;;;4.88;2.10;;;17.10;99.90;;;;;;5045329;28;20026;-71
2022/06/10 05:42:54;;;;;;;10.18;2.55;;;17.10;99.90;;;;;;5050843;28;20032;-72
2022/06/10 05:45:21;;;;;;;9.57;2.33;;;17.10;99.90;;;;;;5051923;28;20029;-72
2022/06/10 05:47:50;;;;;;;7.80;2.25;;;17.20;99.90;;;;;;5055463;28;20028;-72
2022/06/10 05:50:21;;;;;;;9.68;2.40;;;17.20;99.90;;;;;;5055884;28;20033;-72
2022/06/10 05:52:48;;;;;;;9.70;3.28;;;17.20;99.90;;;;;;5050400;28;20030;-72
2022/06/10 05:55:14;;;;;;;6.20;2.53;;;17.20;99.90;;;;;;5056327;28;20039;-73
2022/06/10 05:57:40;;;;;;;9.60;2.92;;;17.20;99.90;;;;;;5051718;28;20056;-72
2022/06/10 06:00:14;;;;;;;9.70;2.78;;;17.30;99.90;;;;;;5056608;28;20551;-72
2022/06/10 06:02:41;;;;;;;9.43;2.70;;;17.30;99.90;;;;;;5050848;28;20051;-73
2022/06/10 06:05:09;;;;;;;8.57;2.47;;;17.30;99.90;;;;;;5056481;28;20103;-73
2022/06/10 06:07:37;;;;;;;12.10;2.85;;;17.30;99.90;;;;;;5052301;28;20021;-73
2022/06/10 06:10:03;;;;;;;8.55;2.60;;;17.30;99.90;;;;;;5048014;28;20033;-73
2022/06/10 06:12:29;;;;;;;6.93;2.20;;;17.40;99.90;;;;;;5051026;28;20066;-73
2022/06/10 06:14:55;;;;;;;13.35;2.85;;;17.40;99.90;;;;;;5052923;28;20033;-73
2022/06/10 06:17:21;;;;;;;9.77;3.25;;;17.40;99.90;;;;;;5055355;28;20469;-73
2022/06/10 06:19:47;;;;;;;8.23;2.42;;;17.40;99.90;;;;;;5051011;28;20175;-73
2022/06/10 06:22:14;;;;;;;5.07;1.95;;;17.50;99.90;;;;;;5039442;28;20021;-73
2022/06/10 06:24:40;;;;;;;11.48;2.33;;;17.50;99.90;;;;;;5048214;28;20029;-73
2022/06/10 06:27:10;;;;;;;11.27;1.85;;;17.50;99.90;;;;;;5033806;28;20042;-73
2022/06/10 06:29:36;;;;;;;7.82;1.90;;;17.60;99.90;;;;;;5034831;28;20041;-73
2022/06/10 06:32:02;;;;;;;8.88;1.83;;;17.70;99.90;;;;;;5043969;28;20029;-73
2022/06/10 06:34:28;;;;;;;9.48;1.80;;;17.80;99.90;;;;;;5047708;28;20032;-72
2022/06/10 06:36:55;;;;;;;10.30;2.22;;;17.80;99.90;;;;;;5043285;28;20028;-72
2022/06/10 06:39:23;;;;;;;7.32;2.10;;;17.90;99.90;;;;;;5041420;28;20029;-72
2022/06/10 06:41:50;;;;;;;6.78;2.03;;;17.90;99.90;;;;;;5032789;28;20367;-73
2022/06/10 06:44:16;;;;;;;8.70;2.63;;;17.90;99.90;;;;;;5048345;28;20481;-73
2022/06/10 06:46:43;;;;;;;9.15;2.03;;;18.00;99.90;;;;;;5055160;28;20025;-73
2022/06/10 06:49:14;;;;;;;10.35;2.15;;;18.00;99.90;;;;;;5054267;28;20378;-73
2022/06/10 06:51:40;;;;;;;7.07;1.63;;;18.00;99.90;;;;;;5054497;28;20029;-73
2022/06/10 06:54:08;;;;;;;8.32;2.00;;;18.10;99.90;;;;;;5054370;28;20059;-73
2022/06/10 06:56:34;;;;;;;8.45;2.08;;;18.20;99.90;;;;;;5036358;28;20030;-73
2022/06/10 06:58:59;;;;;;;3.53;1.40;;;18.30;99.90;;;;;;5034580;28;20024;-73
2022/06/10 07:01:25;;;;;;;5.82;1.90;;;18.20;99.90;;;;;;5039119;28;20025;-73
2022/06/10 07:03:51;;;;;;;7.45;1.90;;;18.30;99.90;;;;;;5054373;28;20030;-73
2022/06/10 07:06:16;;;;;;;5.78;2.50;;;18.40;99.90;;;;;;5053502;28;20103;-71
2022/06/10 07:08:42;;;;;;;5.82;1.95;;;18.50;99.90;;;;;;5050612;28;20385;-72
2022/06/10 07:11:09;;;;;;;7.88;1.75;;;18.70;99.90;;;;;;5033471;28;20048;-73
2022/06/10 07:13:37;;;;;;;10.25;2.20;;;18.60;99.90;;;;;;5042687;28;20017;-73
2022/06/10 07:16:07;;;;;;;8.70;1.70;;;18.60;99.90;;;;;;5041738;28;20037;-73
2022/06/10 07:18:33;;;;;;;9.23;1.77;;;18.70;99.90;;;;;;5039632;28;20048;-73
2022/06/10 07:21:00;;;;;;;6.05;2.00;;;18.80;99.90;;;;;;5044139;28;20029;-73
2022/06/10 07:23:26;;;;;;;10.80;1.80;;;18.90;99.90;;;;;;5045369;28;20109;-73
2022/06/10 07:25:53;;;;;;;7.75;1.48;;;18.90;99.90;;;;;;5044190;28;20021;-72
2022/06/10 07:28:19;;;;;;;4.90;2.05;;;19.00;99.90;;;;;;5052741;28;20127;-73
2022/06/10 07:30:45;;;;;;;6.35;1.40;;;19.10;99.90;;;;;;5053786;28;20045;-73
2022/06/10 07:33:12;;;;;;;7.82;1.65;;;19.20;99.90;;;;;;5053896;28;20025;-73
2022/06/10 07:35:39;;;;;;;8.40;1.65;;;19.20;99.90;;;;;;5053740;28;20024;-73
2022/06/10 07:38:06;;;;;;;9.15;2.08;;;19.40;99.90;;;;;;5037357;28;20053;-73
2022/06/10 07:43:23;;;;;;;8.73;2.22;;;19.20;99.90;;;;;;5034252;28;20572;-74
2022/06/10 07:45:49;;;;;;;10.10;1.77;;;19.30;99.90;;;;;;5034012;28;20444;-72
2022/06/10 07:48:15;;;;;;;5.63;1.60;;;19.20;99.90;;;;;;5033764;28;20036;-73
2022/06/10 07:50:43;;;;;;;8.25;1.60;;;19.20;99.90;;;;;;5037428;28;20033;-71
2022/06/10 07:53:10;;;;;;;6.38;1.83;;;19.30;99.90;;;;;;5042374;28;20013;-73
2022/06/10 07:55:37;;;;;;;7.93;1.58;;;19.30;99.90;;;;;;5041872;28;20028;-72
2022/06/10 07:58:03;;;;;;;8.25;1.92;;;19.30;99.90;;;;;;5043662;28;20024;-73
2022/06/10 08:00:30;;;;;;;6.25;1.45;;;19.30;99.90;;;;;;5045719;28;20473;-73
2022/06/10 08:02:57;;;;;;;6.53;1.75;;;19.40;99.90;;;;;;5046818;28;20021;-73
2022/06/10 08:05:23;;;;;;;8.40;2.05;;;19.50;99.90;;;;;;5053223;28;20127;-73
2022/06/10 08:07:50;;;;;;;10.80;1.83;;;19.50;99.90;;;;;;5053916;28;20029;-73
2022/06/10 08:10:26;;;;;;;8.90;2.05;;;19.50;99.90;;;;;;5040186;28;20079;-73
2022/06/10 08:12:51;;;;;;;8.32;2.10;;;19.60;99.90;;;;;;5033536;28;20382;-73
2022/06/10 08:15:19;;;;;;;6.63;1.90;;;19.70;99.90;;;;;;5033566;28;20481;-73
2022/06/10 08:17:47;;;;;;;6.57;1.98;;;19.80;99.90;;;;;;5033616;28;20089;-73
2022/06/10 08:20:21;;;;;;;7.35;1.92;;;19.80;99.90;;;;;;5039300;28;20031;-73
2022/06/10 08:22:48;;;;;;;8.05;1.98;;;19.90;99.90;;;;;;5058569;28;20018;-72
2022/06/10 08:25:14;;;;;;;8.65;1.85;;;19.90;99.90;;;;;;5043800;28;20052;-73
2022/06/10 08:27:41;;;;;;;7.30;1.90;;;20.00;99.90;;;;;;5043068;28;20022;-73
2022/06/10 08:30:12;;;;;;;3.97;1.92;;;20.10;99.90;;;;;;5047310;28;20112;-73
2022/06/10 08:32:37;;;;;;;4.47;1.50;;;20.20;99.90;;;;;;5049052;28;20667;-73
2022/06/10 08:35:04;;;;;;;7.50;1.52;;;20.20;99.90;;;;;;5042641;28;20096;-73
2022/06/10 08:37:32;;;;;;;8.68;2.00;;;20.40;99.90;;;;;;5043938;28;20100;-73
2022/06/10 08:39:58;;;;;;;8.98;1.73;;;20.60;99.90;;;;;;5041802;28;20021;-74
2022/06/10 08:42:37;;;;;;;7.97;2.20;;;20.80;99.90;;;;;;5046122;28;20024;-73
2022/06/10 08:45:17;;;;;;;9.43;1.90;;;20.80;99.90;;;;;;5042720;28;20022;-73
2022/06/10 08:48:04;;;;;;;8.30;2.35;;;20.80;99.90;;;;;;5035701;28;20034;-74
2022/06/10 08:50:59;;;;;;;5.75;1.60;;;20.80;99.90;;;;;;5042418;28;20029;-74
2022/06/10 08:53:44;;;;;;;10.10;2.20;;;21.00;99.90;;;;;;5043758;28;20083;-73
2022/06/10 08:56:26;;;;;;;9.85;2.08;;;21.30;99.90;;;;;;5043153;28;20025;-73
2022/06/10 08:59:00;;;;;;;8.77;2.33;;;21.50;99.90;;;;;;5040796;28;20027;-73
2022/06/10 09:01:28;;;;;;;10.00;2.03;;;21.50;99.90;;;;;;5042329;28;20268;-74
2022/06/10 09:04:07;;;;;;;11.45;2.28;;;21.50;99.90;;;;;;5041606;28;20108;-74
2022/06/10 09:07:12;;;;;;;10.45;2.90;;;21.40;99.90;;;;;;5039699;28;20108;-74
2022/06/10 09:09:41;;;;;;;10.80;2.35;;;21.50;99.90;;;;;;5018434;28;20056;-75
2022/06/10 09:12:18;;;;;;;10.20;2.45;;;21.50;99.90;;;;;;5044552;28;20044;-73
2022/06/10 09:14:44;;;;;;;11.75;2.67;;;21.50;99.90;;;;;;5037915;28;20032;-73
2022/06/10 09:17:16;;;;;;;11.52;2.92;;;21.90;99.90;;;;;;5042168;28;20049;-73
2022/06/10 09:20:12;;;;;;;8.23;2.53;;;22.10;99.90;;;;;;5041313;28;20033;-74
2022/06/10 09:23:03;;;;;;;7.82;2.28;;;22.20;99.90;;;;;;5035683;28;20025;-74
2022/06/10 09:25:40;;;;;;;9.93;2.00;;;22.50;99.90;;;;;;5048068;28;20510;-74
2022/06/10 09:28:06;;;;;;;7.05;2.22;;;22.50;99.90;;;;;;5052474;28;20055;-73
2022/06/10 09:30:56;;;;;;;10.32;2.40;;;22.90;99.90;;;;;;5045763;28;20393;-74
2022/06/10 09:33:40;;;;;;;5.72;1.98;;;23.10;99.90;;;;;;5047670;28;20052;-74
2022/06/10 09:36:18;;;;;;;10.65;2.47;;;23.10;99.90;;;;;;5052635;28;20033;-74
2022/06/10 09:38:49;;;;;;;11.88;2.40;;;23.10;99.90;;;;;;5051659;28;20029;-73
2022/06/10 09:41:48;;;;;;;11.50;2.67;;;23.20;99.90;;;;;;5041335;28;20101;-74
2022/06/10 09:44:35;;;;;;;14.38;3.03;;;23.40;99.90;;;;;;5034498;28;20128;-74
2022/06/10 09:47:17;;;;;;;9.20;3.08;;;23.30;99.90;;;;;;5024874;28;20025;-73
2022/06/10 09:49:51;;;;;;;7.70;2.40;;;23.20;99.90;;;;;;5049991;28;20017;-73
2022/06/10 09:52:32;;;;;;;11.77;2.58;;;23.30;99.90;;;;;;5057429;28;20405;-73
2022/06/10 09:55:19;;;;;;;7.63;2.50;;;23.20;99.90;;;;;;5047382;28;20013;-74
2022/06/10 09:58:15;;;;;;;7.82;2.97;;;23.00;99.90;;;;;;5050045;28;20028;-73
2022/06/10 10:00:48;;;;;;;7.97;2.70;;;22.50;99.90;;;;;;5046768;28;20035;-73
2022/06/10 10:03:36;;;;;;;7.35;2.40;;;22.40;99.90;;;;;;5045919;28;20619;-78
2022/06/10 10:06:30;;;;;;;8.18;2.90;;;22.40;99.90;;;;;;5047687;28;20029;-75
2022/06/10 10:09:02;;;;;;;11.90;2.60;;;22.40;99.90;;;;;;5048189;28;20547;-76
2022/06/10 10:11:38;;;;;;;6.83;2.63;;;22.40;99.90;;;;;;5066887;28;20077;-78
2022/06/10 10:14:25;;;;;;;12.65;3.38;;;22.50;99.90;;;;;;5054725;28;20025;-78
2022/06/10 10:17:19;;;;;;;9.88;3.65;;;22.50;99.90;;;;;;5050004;28;20627;-76
2022/06/10 10:20:04;;;;;;;10.93;3.40;;;22.60;99.90;;;;;;5054911;28;20028;-78
2022/06/10 10:22:48;;;;;;;11.05;3.13;;;22.90;99.90;;;;;;5072047;28;20033;-78
2022/06/10 10:25:21;;;;;;;13.90;2.95;;;23.40;99.90;;;;;;5048194;28;20082;-75
2022/06/10 10:27:48;;;;;;;11.55;3.08;;;23.50;99.90;;;;;;5061632;28;20484;-77
2022/06/10 10:30:46;;;;;;;6.88;3.05;;;23.60;99.90;;;;;;5064685;28;20421;-78
2022/06/10 10:33:14;;;;;;;10.70;3.00;;;23.70;99.90;;;;;;5054582;28;20040;-78
2022/06/10 10:35:48;;;;;;;12.15;3.38;;;23.90;99.90;;;;;;5052743;28;20018;-79
2022/06/10 10:38:34;;;;;;;9.30;3.00;;;23.90;99.90;;;;;;5065445;28;20464;-78
2022/06/10 10:41:11;;;;;;;9.75;3.65;;;24.00;99.90;;;;;;5047036;28;20538;-78
2022/06/10 10:43:37;;;;;;;8.98;3.25;;;24.00;99.90;;;;;;5061403;28;20025;-77
2022/06/10 10:46:26;;;;;;;10.65;3.45;;;24.10;99.90;;;;;;5054813;28;20040;-77
2022/06/10 10:48:53;;;;;;;15.27;3.40;;;24.10;99.90;;;;;;5044118;28;20021;-72
2022/06/10 10:51:23;;;;;;;10.90;3.50;;;24.20;99.90;;;;;;5064498;28;20449;-78
2022/06/10 10:53:56;;;;;;;10.25;3.83;;;24.10;99.90;;;;;;5066864;28;20021;-76
2022/06/10 10:56:37;;;;;;;11.90;3.28;;;24.00;99.90;;;;;;5057341;28;20499;-78
2022/06/10 10:59:04;;;;;;;11.63;3.60;;;24.20;99.90;;;;;;5059695;28;20025;-80
2022/06/10 11:01:43;;;;;;;8.40;3.17;;;24.10;99.90;;;;;;5062052;28;20029;-78
2022/06/10 11:04:18;;;;;;;15.40;4.32;;;24.10;99.90;;;;;;5059234;28;20519;-79
2022/06/10 11:06:43;;;;;;;13.55;3.50;;;24.10;99.90;;;;;;5041537;28;20021;-79
2022/06/10 11:09:23;;;;;;;11.93;3.83;;;24.30;99.90;;;;;;5056138;28;20029;-78
2022/06/10 11:11:51;;;;;;;13.95;3.75;;;24.30;99.90;;;;;;5052247;28;20033;-79
2022/06/10 11:14:24;;;;;;;10.15;3.00;;;24.10;99.90;;;;;;5068782;28;20028;-78
2022/06/10 11:17:06;;;;;;;12.07;3.65;;;24.30;99.90;;;;;;5057589;28;20548;-79
2022/06/10 11:19:32;;;;;;;10.15;3.67;;;24.10;99.90;;;;;;5049064;28;20025;-77
2022/06/10 11:22:03;;;;;;;13.27;3.97;;;24.20;99.90;;;;;;5067673;28;20028;-80
2022/06/10 11:24:42;;;;;;;9.85;3.33;;;24.00;99.90;;;;;;5056868;28;20052;-83
2022/06/10 11:27:35;;;;;;;15.40;3.88;;;24.10;99.90;;;;;;5066439;28;20021;-84
2022/06/10 11:30:15;;;;;;;13.18;3.35;;;24.10;99.90;;;;;;5065931;28;20512;-81
2022/06/10 11:32:55;;;;;;;12.35;3.35;;;24.40;99.90;;;;;;5058432;28;20063;-78
2022/06/10 11:35:56;;;;;;;7.93;3.58;;;24.50;99.90;;;;;;5058770;28;20473;-79
2022/06/10 11:38:31;;;;;;;10.65;3.08;;;24.30;99.90;;;;;;5069005;28;20031;-76
2022/06/10 11:41:12;;;;;;;11.85;3.72;;;23.80;99.90;;;;;;5061533;28;20032;-77
2022/06/10 11:43:46;;;;;;;9.50;3.17;;;24.00;99.90;;;;;;5061699;28;20086;-76
2022/06/10 11:46:41;;;;;;;9.48;3.25;;;23.80;99.90;;;;;;5052669;28;20025;-77
2022/06/10 11:49:21;;;;;;;10.50;3.38;;;24.00;99.90;;;;;;5051910;28;20059;-78
2022/06/10 11:52:07;;;;;;;11.52;3.65;;;24.30;99.90;;;;;;5052203;28;20124;-77
2022/06/10 11:54:44;;;;;;;11.45;3.10;;;24.10;99.90;;;;;;5050141;28;20033;-77
2022/06/10 12:00:24;;;;;;;10.93;3.20;;;24.40;99.90;;;;;;5052125;28;20056;-80
2022/06/10 12:03:06;;;;;;;11.68;3.33;;;24.50;99.90;;;;;;5048154;28;20415;-79
2022/06/10 12:05:47;;;;;;;8.07;3.30;;;24.70;99.90;;;;;;5050789;28;20025;-78
2022/06/10 12:08:34;;;;;;;8.63;3.75;;;24.60;99.90;;;;;;5044382;28;20501;-79
2022/06/10 12:11:31;;;;;;;11.98;2.95;;;24.40;99.90;;;;;;5051010;28;20123;-76
2022/06/10 12:14:08;;;;;;;10.10;3.38;;;24.30;99.90;;;;;;5054557;28;20034;-80
2022/06/10 12:16:35;;;;;;;10.88;3.58;;;24.30;99.90;;;;;;5052672;28;20129;-80
2022/06/10 12:19:06;;;;;;;8.43;3.65;;;24.40;99.90;;;;;;5051185;28;20039;-79
2022/06/10 12:21:32;;;;;;;10.95;3.67;;;24.20;99.90;;;;;;5044425;28;20370;-80
2022/06/10 12:23:58;;;;;;;9.68;3.03;;;24.10;99.90;;;;;;5049303;28;20028;-79
2022/06/10 12:27:00;;;;;;;9.10;3.08;;;24.10;99.90;;;;;;5050012;28;20111;-79
2022/06/10 12:29:40;;;;;;;9.95;2.70;;;24.10;99.90;;;;;;5053026;28;20124;-80
2022/06/10 12:32:23;;;;;;;8.07;2.63;;;24.20;99.90;;;;;;5051054;28;20481;-79
2022/06/10 12:35:25;;;;;;;8.75;3.00;;;24.30;99.90;;;;;;5048634;28;20024;-80
2022/06/10 12:38:06;;;;;;;9.70;3.50;;;24.70;99.90;;;;;;5051031;28;20112;-81
2022/06/10 12:40:42;;;;;;;8.70;2.67;;;25.00;99.90;;;;;;5054352;28;20418;-79
2022/06/10 12:43:26;;;;;;;5.68;2.35;;;25.00;99.90;;;;;;5048748;28;20090;-78
2022/06/10 12:45:56;;;;;;;8.45;2.63;;;24.90;99.90;;;;;;5049896;28;20432;-80
2022/06/10 12:48:26;;;;;;;8.25;2.65;;;24.90;99.90;;;;;;5055804;28;20033;-81
2022/06/10 12:50:57;;;;;;;7.28;2.40;;;25.20;99.90;;;;;;5051701;28;20041;-82
2022/06/10 12:53:45;;;;;;;4.90;2.50;;;25.10;99.90;;;;;;5047329;28;20059;-81
2022/06/10 12:56:26;;;;;;;6.90;2.60;;;24.80;99.90;;;;;;5048255;28;20104;-81
2022/06/10 12:59:04;;;;;;;7.63;2.25;;;24.80;99.90;;;;;;5048835;28;20025;-81
2022/06/10 13:01:29;;;;;;;4.63;1.67;;;24.80;99.90;;;;;;5046382;28;20464;-79
2022/06/10 13:04:22;;;;;;;9.18;2.20;;;24.80;99.90;;;;;;5049804;28;20139;-80
2022/06/10 13:07:00;;;;;;;7.10;2.13;;;25.20;99.90;;;;;;5044569;28;20112;-74
2022/06/10 13:09:35;;;;;;;6.85;2.58;;;25.40;99.90;;;;;;5045544;28;20037;-78
2022/06/10 13:12:07;;;;;;;7.90;2.28;;;25.70;99.90;;;;;;5052933;28;20124;-78
2022/06/10 13:14:36;;;;;;;6.50;2.30;;;25.90;99.90;;;;;;5049028;28;20036;-79
2022/06/10 13:17:22;;;;;;;9.40;2.28;;;26.20;99.90;;;;;;5053269;28;20444;-80
2022/06/10 13:19:56;;;;;;;8.25;2.45;;;26.30;99.90;;;;;;5057088;28;20029;-81
2022/06/10 13:22:25;;;;;;;6.68;2.28;;;26.30;99.90;;;;;;5059482;28;20025;-80
2022/06/10 13:24:54;;;;;;;7.38;2.08;;;26.10;99.90;;;;;;5068616;28;20025;-79